Time;durP1;ratioP1;P1;durP2;ratioP2;P2;SDS_P1;SDS_P2;PMS_P1;PMS_P2;Temp;Humidity;BMP_temperature;BMP_pressure;BME280_temperature;BME280_humidity;BME280_pressure;Samples;Min_cycle;Max_cycle;Signal;HPM_P1;HPM_P2
2022/06/20 00:00:01;;;;;;;11.13;3.10;;;12.60;99.90;;;;;;5025655;28;20038;-77
2022/06/20 00:02:27;;;;;;;7.45;2.10;;;12.60;99.90;;;;;;5009668;28;20040;-76
2022/06/20 00:04:55;;;;;;;7.68;3.15;;;12.60;99.90;;;;;;5025985;28;20091;-77
2022/06/20 00:07:21;;;;;;;9.48;2.40;;;12.60;99.90;;;;;;5010530;28;20038;-77
2022/06/20 00:09:47;;;;;;;5.60;2.20;;;12.60;99.90;;;;;;5042065;28;20040;-77
2022/06/20 00:12:20;;;;;;;5.78;2.17;;;12.50;99.90;;;;;;5026640;28;20474;-77
2022/06/20 00:14:49;;;;;;;6.10;2.30;;;12.50;99.90;;;;;;5029098;28;20041;-76
2022/06/20 00:17:15;;;;;;;4.82;2.08;;;12.50;99.90;;;;;;5027261;28;20041;-76
2022/06/20 00:19:42;;;;;;;6.13;2.17;;;12.50;99.90;;;;;;5007760;28;20564;-77
2022/06/20 00:22:09;;;;;;;8.05;2.80;;;12.50;99.90;;;;;;5024264;28;20073;-77
2022/06/20 00:24:35;;;;;;;5.15;1.90;;;12.50;99.90;;;;;;5008223;28;20045;-77
2022/06/20 00:27:06;;;;;;;7.75;2.45;;;12.50;99.90;;;;;;5026884;28;20041;-76
2022/06/20 00:29:33;;;;;;;7.95;2.20;;;12.50;99.90;;;;;;5010126;28;20041;-76
2022/06/20 00:32:00;;;;;;;6.28;2.45;;;12.50;99.90;;;;;;5010235;28;20120;-77
2022/06/20 00:34:25;;;;;;;9.57;2.42;;;12.50;99.90;;;;;;4995653;28;20465;-77
2022/06/20 00:36:51;;;;;;;7.22;2.38;;;12.40;99.90;;;;;;5002300;28;20046;-76
2022/06/20 00:39:20;;;;;;;6.35;2.03;;;12.40;99.90;;;;;;5026273;28;20033;-76
2022/06/20 00:41:46;;;;;;;6.95;2.15;;;12.30;99.90;;;;;;5027461;28;20352;-76
2022/06/20 00:44:26;;;;;;;7.22;2.63;;;12.30;99.90;;;;;;5026935;28;20531;-76
2022/06/20 00:46:57;;;;;;;7.32;2.40;;;12.30;99.90;;;;;;5025736;28;20794;-77
2022/06/20 00:49:29;;;;;;;5.25;2.20;;;12.30;99.90;;;;;;5027039;28;20030;-76
2022/06/20 00:51:58;;;;;;;;;;;12.30;99.90;;;;;;5026438;28;20146;-76
2022/06/20 00:54:39;;;;;;;7.38;2.30;;;12.30;99.90;;;;;;5037212;28;19917;-77
2022/06/20 00:57:31;;;;;;;8.95;1.98;;;12.30;99.90;;;;;;5026717;28;20112;-76
2022/06/20 01:00:19;;;;;;;9.80;2.47;;;12.30;99.90;;;;;;5024991;28;20029;-76
2022/06/20 01:03:13;;;;;;;5.78;2.30;;;12.30;99.90;;;;;;5026004;28;20038;-76
2022/06/20 01:05:49;;;;;;;8.23;2.58;;;12.30;99.90;;;;;;5034337;28;20048;-77
2022/06/20 01:08:22;;;;;;;8.68;2.28;;;12.30;99.90;;;;;;5025898;28;20041;-76
2022/06/20 01:11:16;;;;;;;8.45;2.80;;;12.30;99.90;;;;;;5042466;28;20041;-76
2022/06/20 01:13:42;;;;;;;8.15;2.55;;;12.30;99.90;;;;;;5034819;28;20508;-76
2022/06/20 01:16:14;;;;;;;7.43;2.25;;;12.30;99.90;;;;;;5038319;28;20128;-76
2022/06/20 01:18:46;;;;;;;9.68;2.30;;;12.30;99.90;;;;;;5026053;28;20069;-76
2022/06/20 01:21:16;;;;;;;8.20;2.42;;;12.30;99.90;;;;;;5010562;28;20045;-76
2022/06/20 01:24:00;;;;;;;6.57;2.60;;;12.30;99.90;;;;;;5009407;28;20410;-76
2022/06/20 01:26:56;;;;;;;8.57;2.72;;;12.30;99.90;;;;;;5008395;28;20112;-76
2022/06/20 01:29:22;;;;;;;4.93;2.55;;;12.30;99.90;;;;;;5026317;28;20067;-76
2022/06/20 01:31:53;;;;;;;6.07;2.50;;;12.40;99.90;;;;;;5026757;28;20547;-76
2022/06/20 01:34:20;;;;;;;7.97;2.20;;;12.40;99.90;;;;;;5032336;28;20507;-77
2022/06/20 01:39:37;;;;;;;13.20;2.65;;;12.40;99.90;;;;;;5008500;28;20479;-76
2022/06/20 01:42:19;;;;;;;6.30;2.33;;;12.40;99.90;;;;;;5003112;28;20073;-76
2022/06/20 01:45:57;;;;;;;8.20;2.42;;;12.40;99.90;;;;;;5022809;28;20038;-76
2022/06/20 01:48:15;;;;;;;9.00;2.47;;;12.40;99.90;;;;;;5022836;28;20061;-76
2022/06/20 01:50:44;;;;;;;6.70;2.50;;;12.40;99.90;;;;;;5029945;28;20045;-76
2022/06/20 01:53:12;;;;;;;9.98;2.58;;;12.40;99.90;;;;;;5026056;28;20041;-77
2022/06/20 01:55:42;;;;;;;10.85;3.08;;;12.40;99.90;;;;;;5021766;28;20067;-76
2022/06/20 01:58:24;;;;;;;8.93;2.50;;;12.50;99.90;;;;;;5032958;28;20042;-76
2022/06/20 02:00:50;;;;;;;8.52;2.83;;;12.50;99.90;;;;;;5009354;28;20136;-76
2022/06/20 02:03:19;;;;;;;7.57;2.70;;;12.50;99.90;;;;;;5012624;28;20466;-76
2022/06/20 02:05:49;;;;;;;5.65;2.80;;;12.50;99.90;;;;;;5032938;28;20076;-77
2022/06/20 02:08:18;;;;;;;6.90;2.40;;;12.50;99.90;;;;;;5041546;28;20588;-76
2022/06/20 02:10:51;;;;;;;5.43;2.35;;;12.50;99.90;;;;;;5011449;28;20077;-76
2022/06/20 02:13:17;;;;;;;6.45;3.70;;;12.50;99.90;;;;;;5032238;28;20461;-77
2022/06/20 02:15:46;;;;;;;8.85;3.03;;;12.50;99.90;;;;;;5028764;28;20341;-76
2022/06/20 02:18:13;;;;;;;10.20;3.53;;;12.50;99.90;;;;;;5027082;28;20042;-76
2022/06/20 02:20:48;;;;;;;6.10;2.67;;;12.50;99.90;;;;;;5029613;28;20349;-77
2022/06/20 02:23:18;;;;;;;5.78;2.72;;;12.50;99.90;;;;;;5027586;28;20034;-76
2022/06/20 02:25:47;;;;;;;7.03;2.60;;;12.50;99.90;;;;;;5035146;28;20625;-76
2022/06/20 02:28:19;;;;;;;7.35;2.92;;;12.50;99.90;;;;;;5030521;28;20041;-76
2022/06/20 02:30:45;;;;;;;4.93;2.30;;;12.50;99.90;;;;;;5030549;28;20536;-76
2022/06/20 02:33:18;;;;;;;8.23;3.22;;;12.50;99.90;;;;;;5009597;28;20073;-76
2022/06/20 02:35:44;;;;;;;9.93;3.10;;;12.50;99.90;;;;;;5028372;28;20498;-77
2022/06/20 02:38:10;;;;;;;7.45;2.85;;;12.50;99.90;;;;;;5030120;28;20101;-76
2022/06/20 02:40:41;;;;;;;8.05;2.85;;;12.40;99.90;;;;;;5019467;28;20038;-77
2022/06/20 02:43:39;;;;;;;3.45;2.60;;;12.40;99.90;;;;;;5029066;28;20035;-76
2022/06/20 02:46:11;;;;;;;9.55;2.88;;;12.40;99.90;;;;;;5035236;28;20073;-76
2022/06/20 02:48:37;;;;;;;11.07;3.00;;;12.40;99.90;;;;;;5010443;28;20045;-76
2022/06/20 02:51:06;;;;;;;11.52;3.42;;;12.30;99.90;;;;;;5038702;28;20084;-76
2022/06/20 02:53:40;;;;;;;9.75;3.00;;;12.30;99.90;;;;;;5028860;28;20095;-76
2022/06/20 02:56:11;;;;;;;7.10;2.70;;;12.30;99.90;;;;;;5020801;28;20060;-76
2022/06/20 02:58:42;;;;;;;6.05;2.70;;;12.20;99.90;;;;;;5033775;28;20053;-76
2022/06/20 03:01:15;;;;;;;6.68;3.05;;;12.20;99.90;;;;;;5035666;28;20162;-76
2022/06/20 03:03:46;;;;;;;4.68;3.25;;;12.10;99.90;;;;;;5029934;28;20045;-77
2022/06/20 03:06:33;;;;;;;12.27;3.33;;;12.10;99.90;;;;;;5028242;28;20045;-76
2022/06/20 03:09:00;;;;;;;10.18;2.97;;;12.00;99.90;;;;;;5039658;28;20033;-76
2022/06/20 03:11:28;;;;;;;9.93;3.90;;;12.00;99.90;;;;;;5019460;28;20034;-77
2022/06/20 03:13:56;;;;;;;6.43;3.65;;;11.90;99.90;;;;;;5013712;28;20067;-77
2022/06/20 03:16:23;;;;;;;8.15;3.00;;;11.90;99.90;;;;;;5011544;28;20084;-77
2022/06/20 03:18:50;;;;;;;7.88;3.33;;;11.80;99.90;;;;;;5023049;28;20103;-76
2022/06/20 03:21:24;;;;;;;8.30;2.65;;;11.80;99.90;;;;;;5024689;28;20084;-76
2022/06/20 03:23:50;;;;;;;7.72;3.00;;;11.70;99.90;;;;;;5042198;28;20120;-76
2022/06/20 03:26:23;;;;;;;7.97;2.90;;;11.70;99.90;;;;;;4981452;28;20293;-77
2022/06/20 03:28:50;;;;;;;18.05;3.35;;;11.70;99.90;;;;;;4998902;28;20049;-76
2022/06/20 03:31:16;;;;;;;4.70;2.92;;;11.70;99.90;;;;;;5030300;28;20042;-77
2022/06/20 03:33:42;;;;;;;8.93;3.00;;;11.70;99.90;;;;;;5007506;28;20141;-76
2022/06/20 03:36:31;;;;;;;9.40;3.17;;;11.70;99.90;;;;;;5012744;28;20052;-77
2022/06/20 03:38:58;;;;;;;9.23;3.22;;;11.70;99.90;;;;;;5009826;28;20122;-76
2022/06/20 03:41:26;;;;;;;7.10;2.95;;;11.70;99.90;;;;;;4994079;28;20569;-76
2022/06/20 03:44:05;;;;;;;5.78;3.00;;;11.60;99.90;;;;;;4999914;28;20037;-77
2022/06/20 03:46:54;;;;;;;10.05;2.70;;;11.60;99.90;;;;;;5013769;28;20403;-77
2022/06/20 03:49:43;;;;;;;7.53;3.35;;;11.60;99.90;;;;;;5039007;28;20037;-77
2022/06/20 03:52:30;;;;;;;7.18;3.42;;;11.50;99.90;;;;;;5038392;28;20395;-76
2022/06/20 03:55:02;;;;;;;9.32;3.05;;;11.50;99.90;;;;;;5026091;28;20895;-77
2022/06/20 03:57:53;;;;;;;8.30;3.33;;;11.40;99.90;;;;;;5028586;28;20495;-77
2022/06/20 04:00:27;;;;;;;7.97;3.10;;;11.40;99.90;;;;;;5007895;28;20048;-77
2022/06/20 04:03:06;;;;;;;8.65;3.17;;;11.40;99.90;;;;;;5037228;28;20060;-77
2022/06/20 04:05:47;;;;;;;9.15;3.30;;;11.40;99.90;;;;;;5027802;28;20114;-76
2022/06/20 04:08:20;;;;;;;8.77;3.65;;;11.40;99.90;;;;;;5020767;28;20049;-77
2022/06/20 04:11:01;;;;;;;10.77;3.40;;;11.40;99.90;;;;;;5027588;28;20084;-77
2022/06/20 04:14:02;;;;;;;10.80;3.30;;;11.40;99.90;;;;;;5026800;28;20080;-77
2022/06/20 04:16:38;;;;;;;7.57;3.05;;;11.40;99.90;;;;;;5031985;28;20096;-77
2022/06/20 04:19:35;;;;;;;11.75;3.72;;;11.50;99.90;;;;;;5024520;28;20095;-77
2022/06/20 04:22:22;;;;;;;9.38;3.22;;;11.50;99.90;;;;;;5027665;28;20418;-77
2022/06/20 04:25:26;;;;;;;10.93;3.35;;;11.40;99.90;;;;;;5039030;28;20501;-77
2022/06/20 04:28:21;;;;;;;7.15;3.42;;;11.50;99.90;;;;;;5003850;28;20049;-77
2022/06/20 04:30:54;;;;;;;5.88;3.10;;;11.50;99.90;;;;;;4994248;28;20036;-77
2022/06/20 04:33:31;;;;;;;10.10;3.40;;;11.50;99.90;;;;;;5008017;28;20045;-77
2022/06/20 04:36:06;;;;;;;6.90;3.30;;;11.60;99.90;;;;;;5036684;28;20037;-77
2022/06/20 04:38:44;;;;;;;9.43;3.53;;;11.50;99.90;;;;;;5015227;28;20037;-77
2022/06/20 04:41:20;;;;;;;7.68;3.47;;;11.60;99.90;;;;;;5014763;28;20037;-77
2022/06/20 04:44:13;;;;;;;10.38;3.58;;;11.60;99.90;;;;;;4992718;28;20045;-77
2022/06/20 04:47:05;;;;;;;6.55;2.95;;;11.60;99.90;;;;;;5028667;28;20495;-77
2022/06/20 04:49:32;;;;;;;6.47;3.00;;;11.70;99.90;;;;;;5003955;28;20046;-77
2022/06/20 04:51:57;;;;;;;9.02;3.33;;;11.70;99.90;;;;;;5014170;28;20518;-77
2022/06/20 04:54:23;;;;;;;5.30;3.22;;;11.80;99.90;;;;;;5007009;28;20033;-77
2022/06/20 04:56:53;;;;;;;10.63;4.00;;;11.80;99.90;;;;;;5011260;28;20038;-79
2022/06/20 04:59:26;;;;;;;8.52;3.58;;;11.90;99.90;;;;;;5027047;28;20108;-78
2022/06/20 05:01:53;;;;;;;8.27;3.53;;;11.90;99.90;;;;;;5032818;28;20121;-78
2022/06/20 05:04:37;;;;;;;11.18;3.80;;;11.90;99.90;;;;;;5040067;28;20034;-79
2022/06/20 05:07:10;;;;;;;6.63;3.40;;;12.00;99.90;;;;;;5040915;28;20505;-78
2022/06/20 05:09:58;;;;;;;9.60;3.58;;;12.00;99.90;;;;;;5024324;28;20042;-78
2022/06/20 05:12:42;;;;;;;9.23;3.75;;;12.00;99.90;;;;;;5025322;28;20033;-78
2022/06/20 05:15:23;;;;;;;13.25;3.67;;;12.10;99.90;;;;;;5032791;28;20136;-78
2022/06/20 05:17:51;;;;;;;9.50;3.60;;;12.10;99.90;;;;;;5025802;28;20490;-78
2022/06/20 05:20:30;;;;;;;11.60;4.38;;;12.10;99.90;;;;;;5022390;28;20049;-78
2022/06/20 05:23:04;;;;;;;11.88;3.72;;;12.20;99.90;;;;;;5040363;28;20033;-78
2022/06/20 05:25:33;;;;;;;9.90;3.53;;;12.20;99.90;;;;;;5024234;28;20088;-78
2022/06/20 05:28:13;;;;;;;9.38;3.78;;;12.30;99.90;;;;;;5022106;28;20084;-78
2022/06/20 05:30:41;;;;;;;7.72;3.58;;;12.40;99.90;;;;;;5024975;28;20415;-78
2022/06/20 05:33:13;;;;;;;8.80;3.40;;;12.40;99.90;;;;;;5024270;28;20068;-77
2022/06/20 05:36:02;;;;;;;7.05;3.25;;;12.90;99.90;;;;;;5009921;28;20045;-78
2022/06/20 05:38:46;;;;;;;10.10;3.30;;;12.60;99.90;;;;;;5034083;28;20119;-78
2022/06/20 05:41:16;;;;;;;8.02;3.20;;;12.60;99.90;;;;;;5026485;28;20098;-77
2022/06/20 05:43:42;;;;;;;12.05;3.55;;;12.70;99.90;;;;;;5023616;28;20049;-77
2022/06/20 05:46:19;;;;;;;8.65;3.20;;;12.80;99.90;;;;;;5045249;28;20041;-78
2022/06/20 05:48:52;;;;;;;8.52;3.20;;;12.80;99.90;;;;;;5013312;28;20057;-77
2022/06/20 05:51:21;;;;;;;6.13;2.88;;;12.90;99.90;;;;;;5033089;28;20049;-78
2022/06/20 05:54:03;;;;;;;6.15;3.22;;;12.90;99.90;;;;;;5028000;28;20514;-78
2022/06/20 05:56:41;;;;;;;9.30;3.30;;;13.00;99.90;;;;;;5028003;28;20172;-77
2022/06/20 05:59:33;;;;;;;8.10;3.10;;;13.00;99.90;;;;;;5012040;28;20061;-77
2022/06/20 06:02:10;;;;;;;12.73;3.80;;;13.10;99.90;;;;;;5026394;28;20124;-78
2022/06/20 06:04:48;;;;;;;9.27;3.33;;;13.20;99.90;;;;;;5046013;28;20037;-76
2022/06/20 06:07:19;;;;;;;10.95;3.40;;;13.30;99.90;;;;;;5036027;28;20402;-78
2022/06/20 06:10:39;;;;;;;6.38;3.20;;;13.40;99.90;;;;;;5025936;28;20037;-78
2022/06/20 06:13:38;;;;;;;7.47;3.78;;;13.40;99.90;;;;;;4987998;28;20139;-77
2022/06/20 06:19:17;;;;;;;11.30;4.05;;;13.60;99.90;;;;;;5019752;28;20213;-78
2022/06/20 06:21:46;;;;;;;8.30;3.30;;;13.70;99.90;;;;;;5030112;28;20108;-77
2022/06/20 06:24:15;;;;;;;9.27;3.42;;;13.80;99.90;;;;;;5031844;28;20542;-77
2022/06/20 06:26:43;;;;;;;11.00;3.60;;;13.80;99.90;;;;;;5020472;28;20088;-77
2022/06/20 06:29:34;;;;;;;7.53;3.20;;;13.90;99.90;;;;;;5025105;28;20044;-78
2022/06/20 06:32:07;;;;;;;9.77;3.22;;;14.00;99.90;;;;;;5016157;28;20490;-78
2022/06/20 06:34:56;;;;;;;6.85;3.85;;;14.00;99.90;;;;;;5026889;28;20065;-77
2022/06/20 06:37:31;;;;;;;10.25;3.45;;;14.10;99.90;;;;;;5024731;28;20128;-77
2022/06/20 06:40:12;;;;;;;9.00;3.53;;;14.20;99.90;;;;;;5022953;28;20038;-78
2022/06/20 06:42:40;;;;;;;8.73;3.47;;;14.30;99.90;;;;;;5026444;28;20037;-78
2022/06/20 06:45:07;;;;;;;9.48;3.42;;;14.40;99.90;;;;;;5021578;28;20087;-80
2022/06/20 06:47:49;;;;;;;5.60;3.65;;;14.50;99.90;;;;;;5013032;28;20096;-78
2022/06/20 06:50:28;;;;;;;9.93;3.67;;;14.70;99.90;;;;;;5028634;28;20041;-77
2022/06/20 06:53:05;;;;;;;8.75;3.30;;;14.90;99.90;;;;;;5029811;28;20041;-78
2022/06/20 06:55:41;;;;;;;10.70;4.47;;;15.00;99.90;;;;;;5029368;28;20047;-79
2022/06/20 06:58:31;;;;;;;10.52;4.18;;;15.10;99.90;;;;;;5030930;28;20049;-78
2022/06/20 07:01:13;;;;;;;16.75;4.63;;;15.30;99.90;;;;;;5025672;28;20341;-78
2022/06/20 07:03:47;;;;;;;7.82;4.03;;;15.30;99.90;;;;;;5035591;28;20038;-77
2022/06/20 07:06:23;;;;;;;8.35;3.65;;;15.30;99.90;;;;;;5017186;28;20044;-78
2022/06/20 07:08:56;;;;;;;8.63;3.92;;;15.30;99.90;;;;;;5043597;28;20049;-78
2022/06/20 07:11:25;;;;;;;10.98;3.85;;;15.30;99.90;;;;;;5017534;28;20057;-80
2022/06/20 07:14:11;;;;;;;13.00;3.95;;;15.40;99.90;;;;;;5034599;28;20503;-79
2022/06/20 07:16:49;;;;;;;8.43;3.55;;;15.50;99.90;;;;;;5043038;28;20037;-79
2022/06/20 07:19:15;;;;;;;19.40;4.07;;;15.70;99.90;;;;;;5010213;28;20492;-78
2022/06/20 07:21:43;;;;;;;7.07;3.75;;;15.80;99.90;;;;;;5026322;28;20049;-78
2022/06/20 07:24:15;;;;;;;12.60;3.35;;;15.70;99.90;;;;;;5013934;28;20041;-81
2022/06/20 07:26:59;;;;;;;9.70;3.70;;;15.50;99.90;;;;;;5026244;28;20691;-79
2022/06/20 07:29:30;;;;;;;7.07;3.30;;;15.30;99.90;;;;;;5039204;28;20048;-79
2022/06/20 07:32:03;;;;;;;8.38;3.35;;;15.20;99.90;;;;;;5029736;28;20124;-78
2022/06/20 07:34:46;;;;;;;10.23;3.83;;;15.30;99.90;;;;;;5031760;28;20046;-78
2022/06/20 07:37:20;;;;;;;15.10;3.90;;;15.20;99.90;;;;;;5018341;28;20033;-79
2022/06/20 07:40:01;;;;;;;8.77;3.33;;;15.30;99.90;;;;;;5000232;28;20038;-79
2022/06/20 07:42:29;;;;;;;10.20;3.75;;;15.40;99.90;;;;;;5029439;28;20460;-79
2022/06/20 07:45:05;;;;;;;8.60;3.10;;;15.70;99.90;;;;;;5024542;28;20091;-80
2022/06/20 07:47:35;;;;;;;8.18;2.85;;;15.90;99.90;;;;;;5026834;28;20046;-79
2022/06/20 07:50:10;;;;;;;6.15;2.97;;;16.00;99.90;;;;;;5021088;28;20048;-78
2022/06/20 07:52:41;;;;;;;9.70;2.90;;;16.20;99.90;;;;;;5033978;28;20042;-79
2022/06/20 07:55:13;;;;;;;8.00;3.20;;;16.30;99.90;;;;;;5023819;28;20120;-78
2022/06/20 07:57:47;;;;;;;8.20;3.00;;;16.50;99.90;;;;;;5029099;28;20554;-79
2022/06/20 08:00:16;;;;;;;7.10;2.72;;;16.70;99.90;;;;;;5043873;28;20367;-79
2022/06/20 08:02:46;;;;;;;7.95;3.08;;;16.90;99.90;;;;;;5010382;28;20042;-79
2022/06/20 08:05:25;;;;;;;6.97;2.80;;;17.00;99.00;;;;;;5027779;28;20037;-79
2022/06/20 08:07:58;;;;;;;11.48;3.10;;;17.20;99.90;;;;;;5018065;28;20052;-79
2022/06/20 08:10:53;;;;;;;5.18;3.03;;;17.50;99.90;;;;;;5041696;28;20115;-79
2022/06/20 08:13:31;;;;;;;6.68;2.80;;;17.70;98.60;;;;;;5000214;28;20407;-78
2022/06/20 08:16:24;;;;;;;9.95;2.90;;;17.90;97.70;;;;;;5037910;28;20120;-79
2022/06/20 08:18:50;;;;;;;9.85;3.50;;;18.10;98.90;;;;;;5041415;28;20049;-78
2022/06/20 08:21:18;;;;;;;11.05;2.85;;;18.30;99.10;;;;;;5009292;28;20030;-78
2022/06/20 08:23:59;;;;;;;8.77;3.00;;;18.20;98.50;;;;;;5043737;28;20041;-78
2022/06/20 08:26:34;;;;;;;13.88;3.70;;;17.90;97.80;;;;;;5040408;28;20037;-78
2022/06/20 08:29:11;;;;;;;5.20;2.70;;;17.50;98.10;;;;;;5012858;28;20046;-80
2022/06/20 08:31:43;;;;;;;5.97;2.72;;;17.20;98.10;;;;;;5044460;28;20174;-79
2022/06/20 08:34:20;;;;;;;10.20;2.80;;;17.10;98.80;;;;;;5033574;28;20077;-79
2022/06/20 08:36:57;;;;;;;7.25;2.90;;;17.30;98.90;;;;;;5025264;28;20061;-79
2022/06/20 08:39:26;;;;;;;7.40;2.88;;;17.30;98.70;;;;;;5034505;28;20069;-78
2022/06/20 08:42:14;;;;;;;9.02;2.58;;;17.20;98.70;;;;;;5025522;28;20099;-79
2022/06/20 08:44:52;;;;;;;6.28;3.08;;;17.10;98.40;;;;;;5041248;28;20052;-78
2022/06/20 08:47:47;;;;;;;6.35;2.88;;;17.30;98.70;;;;;;5009125;28;20038;-80
2022/06/20 08:50:44;;;;;;;6.90;2.55;;;17.50;97.50;;;;;;5008559;28;20064;-78
2022/06/20 08:53:22;;;;;;;7.18;2.83;;;17.80;98.60;;;;;;5009139;28;20149;-79
2022/06/20 08:56:10;;;;;;;6.20;2.58;;;18.20;98.50;;;;;;5010188;28;20044;-78
2022/06/20 08:59:14;;;;;;;10.00;2.85;;;18.40;97.80;;;;;;5047173;28;20033;-79
2022/06/20 09:02:06;;;;;;;9.82;3.42;;;18.60;96.90;;;;;;5008864;28;20037;-80
2022/06/20 09:04:35;;;;;;;9.23;2.50;;;18.50;97.50;;;;;;5011378;28;20126;-79
2022/06/20 09:07:15;;;;;;;11.20;2.75;;;18.30;97.40;;;;;;5005202;28;20088;-80
2022/06/20 09:10:06;;;;;;;5.22;2.55;;;18.50;97.20;;;;;;5018282;28;20120;-79
2022/06/20 09:12:44;;;;;;;5.43;2.30;;;18.60;96.90;;;;;;5033744;28;20192;-78
2022/06/20 09:15:29;;;;;;;11.18;2.92;;;18.50;96.60;;;;;;5015646;28;20033;-78
2022/06/20 09:18:04;;;;;;;7.38;3.17;;;18.30;96.80;;;;;;4991691;28;20042;-79
2022/06/20 09:20:50;;;;;;;7.15;3.03;;;18.10;96.90;;;;;;5026393;28;20036;-78
2022/06/20 09:23:44;;;;;;;8.05;3.15;;;17.90;97.20;;;;;;5008782;28;20042;-78
2022/06/20 09:26:31;;;;;;;9.55;2.72;;;17.70;97.20;;;;;;5009986;28;20049;-79
2022/06/20 09:28:59;;;;;;;4.78;2.25;;;17.90;96.70;;;;;;5023403;28;20044;-79
2022/06/20 09:31:40;;;;;;;5.28;2.60;;;17.90;95.90;;;;;;5019158;28;20034;-80
2022/06/20 09:34:33;;;;;;;4.88;1.75;;;18.00;94.50;;;;;;5012602;28;20088;-80
2022/06/20 09:37:15;;;;;;;4.43;2.30;;;18.10;94.50;;;;;;5034174;28;20096;-79
2022/06/20 09:39:54;;;;;;;3.80;1.70;;;17.90;95.10;;;;;;5007492;28;20037;-80
2022/06/20 09:42:48;;;;;;;5.88;2.22;;;18.00;95.50;;;;;;5036006;28;20042;-78
2022/06/20 09:45:34;;;;;;;6.38;2.30;;;18.30;95.90;;;;;;5030359;28;20041;-79
2022/06/20 09:48:31;;;;;;;6.95;2.58;;;18.60;96.00;;;;;;5021003;28;20088;-78
2022/06/20 09:51:09;;;;;;;3.53;2.03;;;18.80;94.90;;;;;;5009813;28;20038;-78
2022/06/20 09:53:47;;;;;;;6.15;1.70;;;19.10;95.10;;;;;;5024862;28;20033;-78
2022/06/20 09:56:34;;;;;;;6.70;1.90;;;19.40;95.20;;;;;;5022351;28;20458;-79
2022/06/20 09:59:30;;;;;;;3.45;1.73;;;19.80;94.40;;;;;;5012823;28;20125;-79
2022/06/20 10:02:30;;;;;;;4.15;2.17;;;20.00;93.80;;;;;;5004757;28;20041;-80
2022/06/20 10:05:24;;;;;;;4.45;2.00;;;19.80;93.20;;;;;;5010185;28;20069;-79
2022/06/20 10:08:23;;;;;;;4.95;1.67;;;19.50;92.20;;;;;;4999686;28;20130;-80
2022/06/20 10:10:53;;;;;;;4.95;1.65;;;19.00;91.70;;;;;;5029132;28;20038;-79
2022/06/20 10:13:37;;;;;;;6.28;1.73;;;18.70;92.70;;;;;;5027882;28;20500;-80
2022/06/20 10:16:38;;;;;;;4.07;1.83;;;18.40;92.90;;;;;;5027651;28;20072;-79
2022/06/20 10:19:22;;;;;;;5.10;2.03;;;18.30;93.10;;;;;;5016965;28;20033;-79
2022/06/20 10:22:03;;;;;;;5.15;2.03;;;18.20;93.70;;;;;;5011317;28;20045;-79
2022/06/20 10:24:41;;;;;;;6.93;2.10;;;18.00;93.60;;;;;;5015147;28;20789;-78
2022/06/20 10:27:44;;;;;;;6.95;2.50;;;18.20;94.10;;;;;;5040842;28;20530;-79
2022/06/20 10:30:42;;;;;;;7.88;2.25;;;18.70;94.50;;;;;;5012130;28;20038;-79
2022/06/20 10:33:29;;;;;;;5.00;2.05;;;19.10;93.80;;;;;;4998406;28;20068;-78
2022/06/20 10:36:27;;;;;;;3.22;1.50;;;19.50;92.90;;;;;;5033712;28;20045;-79
2022/06/20 10:39:07;;;;;;;4.32;1.50;;;19.50;91.30;;;;;;4991343;28;20045;-78
2022/06/20 10:42:06;;;;;;;8.10;1.88;;;19.50;91.40;;;;;;5031247;28;20044;-78
2022/06/20 10:44:47;;;;;;;4.28;1.70;;;19.50;91.50;;;;;;5027629;28;20038;-79
2022/06/20 10:47:36;;;;;;;6.30;1.70;;;19.20;91.30;;;;;;5007677;28;20394;-79
2022/06/20 10:50:23;;;;;;;3.45;2.00;;;19.10;91.60;;;;;;5019054;28;20041;-79
2022/06/20 10:52:55;;;;;;;5.35;1.90;;;18.70;91.90;;;;;;5028580;28;20116;-79
2022/06/20 10:55:52;;;;;;;4.57;2.08;;;18.50;92.80;;;;;;5021941;28;20042;-78
2022/06/20 10:58:30;;;;;;;4.47;2.15;;;18.30;93.10;;;;;;5021874;28;20483;-79
2022/06/20 11:01:18;;;;;;;6.75;2.15;;;18.20;93.60;;;;;;5044568;28;20041;-79
2022/06/20 11:04:01;;;;;;;5.40;2.22;;;18.10;94.10;;;;;;5030910;28;20045;-79
2022/06/20 11:06:27;;;;;;;5.75;1.90;;;17.90;94.20;;;;;;5011390;28;20178;-79
2022/06/20 11:09:03;;;;;;;5.80;2.10;;;17.80;94.50;;;;;;5022977;28;20486;-79
2022/06/20 11:11:37;;;;;;;6.32;2.28;;;17.70;94.80;;;;;;5044876;28;20465;-79
2022/06/20 11:14:13;;;;;;;6.72;2.08;;;18.10;95.00;;;;;;5028651;28;20075;-79
2022/06/20 11:17:26;;;;;;;10.02;2.42;;;18.50;95.60;;;;;;5008394;28;20048;-78
2022/06/20 11:20:12;;;;;;;5.90;1.67;;;19.00;94.20;;;;;;5011430;28;20530;-81
2022/06/20 11:23:01;;;;;;;4.10;1.80;;;19.30;90.10;;;;;;5026533;28;20049;-79
2022/06/20 11:25:59;;;;;;;5.53;1.92;;;19.70;91.70;;;;;;5010625;28;20125;-79
2022/06/20 11:28:36;;;;;;;3.20;1.77;;;20.00;90.20;;;;;;5023162;28;20053;-79
2022/06/20 11:31:23;;;;;;;4.13;1.40;;;20.30;90.50;;;;;;5032851;28;20112;-78
2022/06/20 11:34:01;;;;;;;4.07;1.60;;;20.30;90.50;;;;;;5009892;28;20503;-78
2022/06/20 11:37:14;;;;;;;3.22;1.60;;;20.10;90.40;;;;;;5032084;28;20064;-78
2022/06/20 11:39:43;;;;;;;;;;;19.90;90.20;;;;;;5022637;28;20096;-79
2022/06/20 11:42:08;;;;;;;4.15;2.17;;;19.70;90.60;;;;;;5017898;28;19978;-78
2022/06/20 11:44:40;;;;;;;7.00;1.80;;;19.40;90.90;;;;;;5008323;28;20037;-78
2022/06/20 11:47:18;;;;;;;4.83;2.03;;;19.40;91.30;;;;;;5010948;28;20084;-79
2022/06/20 11:49:49;;;;;;;2.70;1.90;;;19.70;91.80;;;;;;5008127;28;20503;-78
2022/06/20 11:52:24;;;;;;;5.32;2.30;;;19.60;91.00;;;;;;5020944;28;20088;-79
2022/06/20 11:55:26;;;;;;;4.03;1.90;;;19.90;92.20;;;;;;5019584;28;20457;-77
2022/06/20 11:57:54;;;;;;;3.92;1.98;;;20.10;91.20;;;;;;5017297;28;20430;-78
2022/06/20 12:00:25;;;;;;;4.65;1.98;;;20.20;91.00;;;;;;5029638;28;20113;-78
2022/06/20 12:03:10;;;;;;;6.70;2.03;;;20.20;91.30;;;;;;5052580;28;20409;-80
2022/06/20 12:05:47;;;;;;;4.97;1.90;;;20.20;91.40;;;;;;5020267;28;20041;-79
2022/06/20 12:08:37;;;;;;;6.25;2.03;;;20.10;91.50;;;;;;5042746;28;20052;-77
2022/06/20 12:11:11;;;;;;;7.72;2.28;;;20.20;92.10;;;;;;5031975;28;20049;-78
2022/06/20 12:13:50;;;;;;;5.13;1.92;;;20.10;91.90;;;;;;5029567;28;20052;-77
2022/06/20 12:16:50;;;;;;;8.25;2.13;;;20.30;92.10;;;;;;5024941;28;20034;-78
2022/06/20 12:25:14;;;;;;;5.88;2.03;;;20.40;90.10;;;;;;5020959;28;20045;-79
2022/06/20 12:27:40;;;;;;;4.50;2.22;;;20.20;90.70;;;;;;5026569;28;20049;-78
2022/06/20 12:30:12;;;;;;;9.20;2.25;;;20.30;91.00;;;;;;5026328;28;20099;-79
2022/06/20 12:32:42;;;;;;;5.05;2.05;;;20.30;91.00;;;;;;5031495;28;20515;-79
2022/06/20 12:35:19;;;;;;;4.38;1.90;;;20.30;91.00;;;;;;5017757;28;20503;-79
2022/06/20 12:37:53;;;;;;;5.75;1.95;;;20.50;88.70;;;;;;5010919;28;20067;-79
2022/06/20 12:40:51;;;;;;;4.22;1.88;;;20.70;89.30;;;;;;5004940;28;20029;-78
2022/06/20 12:43:25;;;;;;;4.53;1.90;;;20.70;87.50;;;;;;5006982;28;20057;-81
2022/06/20 12:46:12;;;;;;;6.30;2.70;;;20.50;88.40;;;;;;5012499;28;20042;-78
2022/06/20 12:48:41;;;;;;;4.90;2.08;;;20.10;89.70;;;;;;5013926;28;20041;-81
2022/06/20 12:51:28;;;;;;;4.15;2.70;;;20.00;90.60;;;;;;5030227;28;20073;-82
2022/06/20 12:54:26;;;;;;;5.43;2.10;;;19.90;90.50;;;;;;5018676;28;20095;-79
2022/06/20 12:57:13;;;;;;;5.10;2.03;;;20.00;90.80;;;;;;5022020;28;20091;-79
2022/06/20 12:59:57;;;;;;;6.95;1.90;;;19.80;90.80;;;;;;5024548;28;20041;-79
2022/06/20 13:02:35;;;;;;;4.32;2.63;;;19.80;90.60;;;;;;5018702;28;20065;-78
2022/06/20 13:05:26;;;;;;;4.10;2.20;;;19.90;90.90;;;;;;5029074;28;20041;-78
2022/06/20 13:08:40;;;;;;;6.25;2.33;;;20.30;90.90;;;;;;5039920;28;20503;-78
2022/06/20 13:11:25;;;;;;;5.72;2.00;;;20.50;88.90;;;;;;5027757;28;20038;-77
2022/06/20 13:14:15;;;;;;;4.95;2.25;;;20.30;89.10;;;;;;5053663;28;20035;-77
2022/06/20 13:17:26;;;;;;;3.63;1.83;;;20.10;88.50;;;;;;5050778;28;20033;-78
2022/06/20 13:19:58;;;;;;;5.80;2.10;;;19.90;89.70;;;;;;5040736;28;20041;-80
2022/06/20 13:22:38;;;;;;;5.80;2.43;;;20.10;89.70;;;;;;5027657;28;20493;-80
2022/06/20 13:25:10;;;;;;;6.85;2.60;;;20.30;90.00;;;;;;4999293;28;20502;-78
2022/06/20 13:27:42;;;;;;;3.80;1.87;;;20.30;89.90;;;;;;5010900;28;20462;-78
2022/06/20 13:30:37;;;;;;;3.15;2.20;;;20.10;89.60;;;;;;5041267;28;20065;-79
2022/06/20 13:33:21;;;;;;;3.38;1.83;;;19.70;88.50;;;;;;5009785;28;20080;-78
2022/06/20 13:36:18;;;;;;;4.78;2.00;;;19.50;88.20;;;;;;5017452;28;20560;-78
2022/06/20 13:39:13;;;;;;;3.28;1.80;;;19.70;89.50;;;;;;5012470;28;20525;-79
2022/06/20 13:42:02;;;;;;;3.88;1.75;;;20.10;87.40;;;;;;5008001;28;20143;-78
2022/06/20 13:44:31;;;;;;;2.67;1.75;;;20.40;86.30;;;;;;5013677;28;20045;-80
2022/06/20 13:47:26;;;;;;;5.38;2.28;;;20.60;87.30;;;;;;5014997;28;20041;-79
2022/06/20 13:50:26;;;;;;;3.05;2.00;;;20.70;84.30;;;;;;5031479;28;20542;-79
2022/06/20 13:53:02;;;;;;;3.38;1.67;;;20.90;87.20;;;;;;4997888;28;20049;-79
2022/06/20 13:56:07;;;;;;;3.67;1.90;;;21.00;85.70;;;;;;5038660;28;20110;-78